TAF KOUN
KOUN 280520Z 2806/2906 34008KT P6SM BKN200 FM290000 17005KT P6SM FEW250=
METAR KOUN
WC KOUN
WS KOUN
WV KOUN